Flatonia, TX (78941)

10:55 AM CST on November 21, 2014 (GMT -0600)
Flatonia | Change Station
CLOSE
Current Station
Personal Weather Station
Location: Flatonia, TX
Elevation: 390 ft
Nearby Weather Stations

Elev 390 ft 29.77 °N, 97.16 °W | Updated 11 minutes ago

Overcast
Overcast
69.4 °F
Feels Like 69.4 °F
N
4.3
Wind Variable Wind from ESE

Today
High -- | Low -- °F
--% Chance of Precip.
Yesterday
High -- | Low -- °F
Precip. -- in
6:57 AM 5:30 PM
Waning Crescent, 1% visible
Pressure 30.11 in
Visibility 4.0 miles
Clouds Overcast 300 ft
Dew Point 68 °F
Humidity 95%
Rainfall 0.00 in
Snow Depth Not available.
UV 1 out of 12
Pollen 3.20 out of 12
Air Quality Not available.
Flu Activity Not available.
METAR K3T5 211615Z AUTO 14004KT 4SM BR OVC003 20/20 A3011 RMK AO2 T01980195

More Conditions Fewer Conditions

Pressure 30.11 in
Visibility 4.0 miles
Clouds Overcast 300 ft
Dew Point 68 °F
Humidity 95%
Rainfall 0.00 in
Snow Depth Not available.
UV 1 out of 12
Pollen 3.20 out of 12
Air Quality Not available.
Flu Activity Not available.
METAR K3T5 211615Z AUTO 14004KT 4SM BR OVC003 20/20 A3011 RMK AO2 T01980195

More Conditions Fewer Conditions

10-Day Weather Forecast

Almanac

Astronomy

Nov. 21, 2014 Rise Set
Actual Time
Civil Twilight
Nautical Twilight
Astronomical Twilight
Moon
Length of Visible Light
Length of Day
Tomorrow will be .
, % of the Moon is Illuminated

Today's Extremes

State Highs State Lows

Community

WunderPhotos

Upload Photos

1,772,687 photos uploaded!

WunderBlogs® & News

Nearby

Air Quality

  Air Quality AQ Index Pollutant
Not available.

Snow Depth

Station Depth Elevation

Earthquake Activity

City Distance Mag. Time & Date
Minimum magnitude displayed is 2.5.

Coastal Water Temperatures

Place Temperature

Nearby Weather Stations